sensor_id;sensor_type;location;lat;lon;timestamp;pressure;altitude;pressure_sealevel;temperature;humidity
32759;BME280;19125;52.360;9.974;2023-04-20T00:00:35;87711.56;;;-145.17;62.17
32759;BME280;19125;52.360;9.974;2023-04-20T00:03:01;87785.00;;;-145.17;62.28
32759;BME280;19125;52.360;9.974;2023-04-20T00:05:27;87737.34;;;-145.17;62.44
32759;BME280;19125;52.360;9.974;2023-04-20T00:07:54;87711.56;;;-145.17;62.17
32759;BME280;19125;52.360;9.974;2023-04-20T00:10:24;87790.97;;;-145.17;61.96
32759;BME280;19125;52.360;9.974;2023-04-20T00:12:49;87699.63;;;-145.17;62.39
32759;BME280;19125;52.360;9.974;2023-04-20T00:15:14;87731.41;;;-145.17;62.17
32759;BME280;19125;52.360;9.974;2023-04-20T00:17:41;87673.84;;;-145.17;62.25
32759;BME280;19125;52.360;9.974;2023-04-20T00:20:07;87691.69;;;-145.17;62.37
32759;BME280;19125;52.360;9.974;2023-04-20T00:22:37;87759.19;;;-145.17;62.26
32759;BME280;19125;52.360;9.974;2023-04-20T00:25:05;87723.47;;;-145.17;61.97
32759;BME280;19125;52.360;9.974;2023-04-20T00:27:31;87715.53;;;-145.17;61.92
32759;BME280;19125;52.360;9.974;2023-04-20T00:29:56;87689.72;;;-145.17;61.94
32759;BME280;19125;52.360;9.974;2023-04-20T00:32:21;87745.31;;;-145.17;62.12
32759;BME280;19125;52.360;9.974;2023-04-20T00:34:47;87644.06;;;-145.17;62.31
32759;BME280;19125;52.360;9.974;2023-04-20T00:37:17;87727.44;;;-145.17;62.28
32759;BME280;19125;52.360;9.974;2023-04-20T00:39:43;87659.94;;;-145.17;62.29
32759;BME280;19125;52.360;9.974;2023-04-20T00:42:08;87675.81;;;-145.17;62.24
32759;BME280;19125;52.360;9.974;2023-04-20T00:44:34;87725.44;;;-145.17;62.15
32759;BME280;19125;52.360;9.974;2023-04-20T00:46:59;87671.84;;;-145.17;62.39
32759;BME280;19125;52.360;9.974;2023-04-20T00:49:27;87731.41;;;-145.17;62.43
32759;BME280;19125;52.360;9.974;2023-04-20T00:51:59;87685.75;;;-145.17;62.61
32759;BME280;19125;52.360;9.974;2023-04-20T00:54:25;87751.25;;;-145.17;62.53
32759;BME280;19125;52.360;9.974;2023-04-20T00:56:52;87747.28;;;-145.17;62.55
32759;BME280;19125;52.360;9.974;2023-04-20T00:59:24;87721.47;;;-145.17;62.77
32759;BME280;19125;52.360;9.974;2023-04-20T01:01:49;87751.25;;;-145.17;62.77
32759;BME280;19125;52.360;9.974;2023-04-20T01:04:15;87747.28;;;-145.17;62.96
32759;BME280;19125;52.360;9.974;2023-04-20T01:06:41;87794.94;;;-145.17;63.12
32759;BME280;19125;52.360;9.974;2023-04-20T01:09:09;87794.94;;;-145.17;63.12
32759;BME280;19125;52.360;9.974;2023-04-20T01:11:37;87763.16;;;-145.17;63.25
32759;BME280;19125;52.360;9.974;2023-04-20T01:14:03;87794.94;;;-145.17;63.54
32759;BME280;19125;52.360;9.974;2023-04-20T01:16:29;87790.97;;;-145.17;63.29
32759;BME280;19125;52.360;9.974;2023-04-20T01:18:55;87788.97;;;-145.17;63.35
32759;BME280;19125;52.360;9.974;2023-04-20T01:21:22;87834.63;;;-145.17;63.59
32759;BME280;19125;52.360;9.974;2023-04-20T01:23:48;87806.84;;;-145.17;63.57
32759;BME280;19125;52.360;9.974;2023-04-20T01:26:17;87790.97;;;-145.17;63.45
32759;BME280;19125;52.360;9.974;2023-04-20T01:28:43;87834.63;;;-145.17;63.48
32759;BME280;19125;52.360;9.974;2023-04-20T01:31:10;87790.97;;;-145.17;63.45
32759;BME280;19125;52.360;9.974;2023-04-20T01:33:35;87862.44;;;-145.17;63.75
32759;BME280;19125;52.360;9.974;2023-04-20T01:36:05;87820.72;;;-145.17;63.78
32759;BME280;19125;52.360;9.974;2023-04-20T01:38:31;87806.84;;;-145.17;63.77
32759;BME280;19125;52.360;9.974;2023-04-20T01:41:03;87812.78;;;-145.17;63.72
32759;BME280;19125;52.360;9.974;2023-04-20T01:43:30;87826.69;;;-145.17;63.63
32759;BME280;19125;52.360;9.974;2023-04-20T01:45:56;87806.84;;;-145.17;63.53
32759;BME280;19125;52.360;9.974;2023-04-20T01:48:21;87812.78;;;-145.17;63.69
32759;BME280;19125;52.360;9.974;2023-04-20T01:50:50;87838.59;;;-145.17;63.91
32759;BME280;19125;52.360;9.974;2023-04-20T01:53:16;87751.25;;;-145.17;63.80
32759;BME280;19125;52.360;9.974;2023-04-20T01:55:42;87802.88;;;-145.17;63.95
32759;BME280;19125;52.360;9.974;2023-04-20T01:58:09;87787.00;;;-145.17;63.92
32759;BME280;19125;52.360;9.974;2023-04-20T02:00:34;87830.66;;;-145.17;64.09
32759;BME280;19125;52.360;9.974;2023-04-20T02:03:00;87783.00;;;-145.17;64.12
32759;BME280;19125;52.360;9.974;2023-04-20T02:05:25;87846.53;;;-145.17;63.92
32759;BME280;19125;52.360;9.974;2023-04-20T02:07:50;87830.66;;;-145.17;64.21
32759;BME280;19125;52.360;9.974;2023-04-20T02:10:16;87814.78;;;-145.17;64.36
32759;BME280;19125;52.360;9.974;2023-04-20T02:12:43;87790.97;;;-145.17;64.33
32759;BME280;19125;52.360;9.974;2023-04-20T02:15:10;87826.69;;;-145.17;64.43
32759;BME280;19125;52.360;9.974;2023-04-20T02:17:36;87826.69;;;-145.17;64.29
32759;BME280;19125;52.360;9.974;2023-04-20T02:20:02;87814.78;;;-145.17;64.23
32759;BME280;19125;52.360;9.974;2023-04-20T02:22:30;87858.44;;;-145.17;64.35
32759;BME280;19125;52.360;9.974;2023-04-20T02:24:59;87868.38;;;-145.17;64.53
32759;BME280;19125;52.360;9.974;2023-04-20T02:27:26;87858.44;;;-145.17;64.41
32759;BME280;19125;52.360;9.974;2023-04-20T02:29:52;87876.31;;;-145.17;64.57
32759;BME280;19125;52.360;9.974;2023-04-20T02:32:17;87844.56;;;-145.17;64.60
32759;BME280;19125;52.360;9.974;2023-04-20T02:34:45;87896.16;;;-145.17;64.85
32759;BME280;19125;52.360;9.974;2023-04-20T02:37:10;87822.72;;;-145.17;64.81
32759;BME280;19125;52.360;9.974;2023-04-20T02:39:36;87862.44;;;-145.17;64.80
32759;BME280;19125;52.360;9.974;2023-04-20T02:42:01;87842.56;;;-145.17;64.68
32759;BME280;19125;52.360;9.974;2023-04-20T02:44:27;87866.41;;;-145.17;65.12
32759;BME280;19125;52.360;9.974;2023-04-20T02:46:53;87848.53;;;-145.17;65.13
32759;BME280;19125;52.360;9.974;2023-04-20T02:49:18;87864.41;;;-145.17;65.14
32759;BME280;19125;52.360;9.974;2023-04-20T02:51:44;87808.81;;;-145.17;65.37
32759;BME280;19125;52.360;9.974;2023-04-20T02:54:12;87902.13;;;-145.17;65.27
32759;BME280;19125;52.360;9.974;2023-04-20T02:56:38;87870.38;;;-145.17;65.41
32759;BME280;19125;52.360;9.974;2023-04-20T02:59:03;87834.63;;;-145.17;65.19
32759;BME280;19125;52.360;9.974;2023-04-20T03:01:29;87878.31;;;-145.17;65.20
32759;BME280;19125;52.360;9.974;2023-04-20T03:03:54;87812.78;;;-145.17;65.39
32759;BME280;19125;52.360;9.974;2023-04-20T03:06:20;87900.16;;;-145.17;65.45
32759;BME280;19125;52.360;9.974;2023-04-20T03:08:45;87828.69;;;-145.17;65.33
32759;BME280;19125;52.360;9.974;2023-04-20T03:11:11;87836.63;;;-145.17;65.46
32759;BME280;19125;52.360;9.974;2023-04-20T03:13:37;87810.81;;;-145.17;65.47
32759;BME280;19125;52.360;9.974;2023-04-20T03:16:02;87767.13;;;-145.17;65.23
32759;BME280;19125;52.360;9.974;2023-04-20T03:18:29;87787.00;;;-145.17;65.74
32759;BME280;19125;52.360;9.974;2023-04-20T03:20:56;87755.22;;;-145.17;65.30
32759;BME280;19125;52.360;9.974;2023-04-20T03:23:24;87822.72;;;-145.17;65.74
32759;BME280;19125;52.360;9.974;2023-04-20T03:25:50;87755.22;;;-145.17;65.49
32759;BME280;19125;52.360;9.974;2023-04-20T03:28:15;87792.94;;;-145.17;65.34
32759;BME280;19125;52.360;9.974;2023-04-20T03:30:41;87800.88;;;-145.17;65.33
32759;BME280;19125;52.360;9.974;2023-04-20T03:33:09;87759.19;;;-145.17;65.57
32759;BME280;19125;52.360;9.974;2023-04-20T03:35:34;87783.00;;;-145.17;65.29
32759;BME280;19125;52.360;9.974;2023-04-20T03:38:00;87743.31;;;-145.17;65.16
32759;BME280;19125;52.360;9.974;2023-04-20T03:40:25;87773.09;;;-145.17;65.33
32759;BME280;19125;52.360;9.974;2023-04-20T03:42:51;87812.78;;;-145.17;65.27
32759;BME280;19125;52.360;9.974;2023-04-20T03:45:17;87731.41;;;-145.17;65.57
32759;BME280;19125;52.360;9.974;2023-04-20T03:47:42;87743.31;;;-145.17;65.63
32759;BME280;19125;52.360;9.974;2023-04-20T03:50:08;87707.59;;;-145.17;65.60
32759;BME280;19125;52.360;9.974;2023-04-20T03:52:34;87735.38;;;-145.17;65.89
32759;BME280;19125;52.360;9.974;2023-04-20T03:54:59;87715.53;;;-145.17;65.56
32759;BME280;19125;52.360;9.974;2023-04-20T03:57:25;87729.41;;;-145.17;65.65
32759;BME280;19125;52.360;9.974;2023-04-20T03:59:50;87731.41;;;-145.17;65.71
32759;BME280;19125;52.360;9.974;2023-04-20T04:02:19;87614.28;;;-145.17;65.92
32759;BME280;19125;52.360;9.974;2023-04-20T04:04:46;87594.44;;;-145.17;65.72
32759;BME280;19125;52.360;9.974;2023-04-20T04:07:14;87644.06;;;-145.17;65.86
32759;BME280;19125;52.360;9.974;2023-04-20T04:09:39;87600.38;;;-145.17;65.86
32759;BME280;19125;52.360;9.974;2023-04-20T04:12:06;87592.44;;;-145.17;66.17
32759;BME280;19125;52.360;9.974;2023-04-20T04:14:33;87520.97;;;-145.17;65.90
32759;BME280;19125;52.360;9.974;2023-04-20T04:16:59;87467.38;;;-145.17;66.53
32759;BME280;19125;52.360;9.974;2023-04-20T04:19:24;87389.97;;;-145.17;66.57
32759;BME280;19125;52.360;9.974;2023-04-20T04:21:50;87350.28;;;-145.17;66.75
32759;BME280;19125;52.360;9.974;2023-04-20T04:24:15;87151.78;;;-145.17;66.73
32759;BME280;19125;52.360;9.974;2023-04-20T04:26:41;87149.78;;;-145.17;66.80
32759;BME280;19125;52.360;9.974;2023-04-20T04:29:07;87143.84;;;-145.17;66.78
32759;BME280;19125;52.360;9.974;2023-04-20T04:31:34;86969.19;;;-145.17;67.06
32759;BME280;19125;52.360;9.974;2023-04-20T04:34:00;86842.16;;;-145.17;66.94
32759;BME280;19125;52.360;9.974;2023-04-20T04:36:25;86812.38;;;-145.17;66.99
32759;BME280;19125;52.360;9.974;2023-04-20T04:38:54;86703.22;;;-145.17;66.78
32759;BME280;19125;52.360;9.974;2023-04-20T04:41:20;86691.31;;;-145.17;66.88
32759;BME280;19125;52.360;9.974;2023-04-20T04:43:46;86659.56;;;-145.17;66.96
32759;BME280;19125;52.360;9.974;2023-04-20T04:46:14;86641.72;;;-145.17;66.79
32759;BME280;19125;52.360;9.974;2023-04-20T04:48:40;86536.53;;;-145.17;67.19
32759;BME280;19125;52.360;9.974;2023-04-20T04:51:07;86514.69;;;-145.17;67.02
32759;BME280;19125;52.360;9.974;2023-04-20T04:53:33;86409.50;;;-145.17;67.05
32759;BME280;19125;52.360;9.974;2023-04-20T04:55:59;86234.88;;;-145.17;67.35
32759;BME280;19125;52.360;9.974;2023-04-20T04:58:25;85865.81;;;-145.17;67.52
32759;BME280;19125;52.360;9.974;2023-04-20T05:00:50;85647.53;;;-145.17;67.29
32759;BME280;19125;52.360;9.974;2023-04-20T05:03:15;85619.75;;;-145.17;67.16
32759;BME280;19125;52.360;9.974;2023-04-20T05:05:41;85580.09;;;-145.17;67.26
32759;BME280;19125;52.360;9.974;2023-04-20T05:08:07;85524.53;;;-145.17;67.11
32759;BME280;19125;52.360;9.974;2023-04-20T05:10:32;85681.28;;;-145.17;67.21
32759;BME280;19125;52.360;9.974;2023-04-20T05:12:58;85526.50;;;-145.17;67.38
32759;BME280;19125;52.360;9.974;2023-04-20T05:15:25;85367.78;;;-145.17;67.27
32759;BME280;19125;52.360;9.974;2023-04-20T05:17:51;85369.78;;;-145.17;67.09
32759;BME280;19125;52.360;9.974;2023-04-20T05:20:16;85377.72;;;-145.17;67.15
32759;BME280;19125;52.360;9.974;2023-04-20T05:22:43;85391.59;;;-145.17;67.21
32759;BME280;19125;52.360;9.974;2023-04-20T05:25:08;85381.69;;;-145.17;67.18
32759;BME280;19125;52.360;9.974;2023-04-20T05:27:34;85482.88;;;-145.17;66.86
32759;BME280;19125;52.360;9.974;2023-04-20T05:29:59;85679.28;;;-145.17;67.03
32759;BME280;19125;52.360;9.974;2023-04-20T05:32:30;85673.34;;;-145.17;67.27
32759;BME280;19125;52.360;9.974;2023-04-20T05:34:56;85518.56;;;-145.17;66.68
32759;BME280;19125;52.360;9.974;2023-04-20T05:37:24;85816.19;;;-145.17;66.84
32759;BME280;19125;52.360;9.974;2023-04-20T05:39:51;86012.63;;;-145.17;66.81
32759;BME280;19125;52.360;9.974;2023-04-20T05:42:19;86014.63;;;-145.17;66.74
32759;BME280;19125;52.360;9.974;2023-04-20T05:44:44;86226.94;;;-145.17;66.50
32759;BME280;19125;52.360;9.974;2023-04-20T05:47:10;86409.50;;;-145.17;66.53
32759;BME280;19125;52.360;9.974;2023-04-20T05:49:36;86572.25;;;-145.17;66.37
32759;BME280;19125;52.360;9.974;2023-04-20T05:52:03;86544.47;;;-145.17;66.37
32759;BME280;19125;52.360;9.974;2023-04-20T05:54:28;86790.56;;;-145.17;65.96
32759;BME280;19125;52.360;9.974;2023-04-20T05:56:54;86989.03;;;-145.17;65.66
32759;BME280;19125;52.360;9.974;2023-04-20T05:59:20;87068.41;;;-145.17;65.58
32759;BME280;19125;52.360;9.974;2023-04-20T06:01:49;87243.09;;;-145.17;65.25
32759;BME280;19125;52.360;9.974;2023-04-20T06:04:15;87286.75;;;-145.17;64.78
32759;BME280;19125;52.360;9.974;2023-04-20T06:06:42;87338.38;;;-145.17;64.21
32759;BME280;19125;52.360;9.974;2023-04-20T06:09:10;87413.78;;;-145.17;64.31
32759;BME280;19125;52.360;9.974;2023-04-20T06:11:36;87340.34;;;-145.17;63.92
32759;BME280;19125;52.360;9.974;2023-04-20T06:14:01;87421.72;;;-145.17;63.74
32759;BME280;19125;52.360;9.974;2023-04-20T06:16:30;87461.44;;;-145.17;63.03
32759;BME280;19125;52.360;9.974;2023-04-20T06:18:56;87419.75;;;-145.17;62.50
32759;BME280;19125;52.360;9.974;2023-04-20T06:21:21;87378.06;;;-145.17;62.02
32759;BME280;19125;52.360;9.974;2023-04-20T06:23:48;87378.06;;;-145.17;61.67
32759;BME280;19125;52.360;9.974;2023-04-20T06:26:14;87413.78;;;-145.17;61.57
32759;BME280;19125;52.360;9.974;2023-04-20T06:28:39;87395.94;;;-145.17;61.39
32759;BME280;19125;52.360;9.974;2023-04-20T06:31:06;87405.84;;;-145.17;61.53
32759;BME280;19125;52.360;9.974;2023-04-20T06:33:31;87389.97;;;-145.17;61.63
32759;BME280;19125;52.360;9.974;2023-04-20T06:35:57;87405.84;;;-145.17;61.98
32759;BME280;19125;52.360;9.974;2023-04-20T06:38:23;87421.72;;;-145.17;61.59
32759;BME280;19125;52.360;9.974;2023-04-20T06:40:49;87334.41;;;-145.17;61.29
32759;BME280;19125;52.360;9.974;2023-04-20T06:43:15;87374.09;;;-145.17;61.55
32759;BME280;19125;52.360;9.974;2023-04-20T06:45:40;87370.13;;;-145.17;60.91
32759;BME280;19125;52.360;9.974;2023-04-20T06:48:06;87411.81;;;-145.17;60.60
32759;BME280;19125;52.360;9.974;2023-04-20T06:50:34;87382.03;;;-145.17;60.84
32759;BME280;19125;52.360;9.974;2023-04-20T06:53:02;87395.94;;;-145.17;60.86
32759;BME280;19125;52.360;9.974;2023-04-20T06:55:28;87403.88;;;-145.17;61.00
32759;BME280;19125;52.360;9.974;2023-04-20T06:57:53;87395.94;;;-145.17;60.26
32759;BME280;19125;52.360;9.974;2023-04-20T07:00:22;87378.06;;;-145.17;60.53
32759;BME280;19125;52.360;9.974;2023-04-20T07:02:49;87358.22;;;-145.17;60.35
32759;BME280;19125;52.360;9.974;2023-04-20T07:05:15;87372.09;;;-145.17;60.01
32759;BME280;19125;52.360;9.974;2023-04-20T07:07:41;87423.72;;;-145.17;60.52
32759;BME280;19125;52.360;9.974;2023-04-20T07:10:09;87405.84;;;-145.17;60.49
32759;BME280;19125;52.360;9.974;2023-04-20T07:12:36;87437.63;;;-145.17;60.82
32759;BME280;19125;52.360;9.974;2023-04-20T07:15:07;87417.75;;;-145.17;60.52
32759;BME280;19125;52.360;9.974;2023-04-20T07:17:44;87312.56;;;-145.17;60.11
32759;BME280;19125;52.360;9.974;2023-04-20T07:20:10;87308.59;;;-145.17;59.82
32759;BME280;19125;52.360;9.974;2023-04-20T07:22:45;87306.59;;;-145.17;59.36
32759;BME280;19125;52.360;9.974;2023-04-20T07:25:15;87243.09;;;-145.17;58.72
32759;BME280;19125;52.360;9.974;2023-04-20T07:27:45;87235.16;;;-145.17;58.11
32759;BME280;19125;52.360;9.974;2023-04-20T07:30:14;87175.59;;;-145.17;57.23
32759;BME280;19125;52.360;9.974;2023-04-20T07:32:47;87147.81;;;-145.17;56.96
32759;BME280;19125;52.360;9.974;2023-04-20T07:35:33;87163.69;;;-145.17;56.18
32759;BME280;19125;52.360;9.974;2023-04-20T07:38:04;87066.44;;;-145.17;55.37
32759;BME280;19125;52.360;9.974;2023-04-20T07:40:30;86993.00;;;-145.17;55.25
32759;BME280;19125;52.360;9.974;2023-04-20T07:42:55;87014.84;;;-145.17;55.13
32759;BME280;19125;52.360;9.974;2023-04-20T07:45:21;87060.47;;;-145.17;54.93
32759;BME280;19125;52.360;9.974;2023-04-20T07:47:48;86973.16;;;-145.17;54.99
32759;BME280;19125;52.360;9.974;2023-04-20T07:50:16;86949.34;;;-145.17;54.39
32759;BME280;19125;52.360;9.974;2023-04-20T07:52:42;86939.41;;;-145.17;53.55
32759;BME280;19125;52.360;9.974;2023-04-20T07:55:11;86899.72;;;-145.17;52.97
32759;BME280;19125;52.360;9.974;2023-04-20T07:57:38;86834.22;;;-145.17;52.64
32759;BME280;19125;52.360;9.974;2023-04-20T08:00:04;86796.50;;;-145.17;51.03
32759;BME280;19125;52.360;9.974;2023-04-20T08:02:33;86762.78;;;-145.17;50.01
32759;BME280;19125;52.360;9.974;2023-04-20T08:05:01;86679.41;;;-145.17;50.13
32759;BME280;19125;52.360;9.974;2023-04-20T08:07:27;86661.56;;;-145.17;49.42
32759;BME280;19125;52.360;9.974;2023-04-20T08:09:53;86740.94;;;-145.17;48.56
32759;BME280;19125;52.360;9.974;2023-04-20T08:12:18;86631.78;;;-145.17;48.27
32759;BME280;19125;52.360;9.974;2023-04-20T08:14:44;86604.00;;;-145.17;46.79
32759;BME280;19125;52.360;9.974;2023-04-20T08:17:09;86607.97;;;-145.17;47.35
32759;BME280;19125;52.360;9.974;2023-04-20T08:19:35;86607.97;;;-145.17;47.29
32759;BME280;19125;52.360;9.974;2023-04-20T08:22:01;86631.78;;;-145.17;47.14
32759;BME280;19125;52.360;9.974;2023-04-20T08:24:32;86590.09;;;-145.17;46.87
32759;BME280;19125;52.360;9.974;2023-04-20T08:27:01;86671.47;;;-145.17;47.16
32759;BME280;19125;52.360;9.974;2023-04-20T08:29:26;86621.88;;;-145.17;47.06
32759;BME280;19125;52.360;9.974;2023-04-20T08:31:51;86695.28;;;-145.17;47.20
32759;BME280;19125;52.360;9.974;2023-04-20T08:34:17;86750.88;;;-145.17;48.25
32759;BME280;19125;52.360;9.974;2023-04-20T08:36:43;86691.31;;;-145.17;48.21
32759;BME280;19125;52.360;9.974;2023-04-20T08:39:11;86711.16;;;-145.17;48.63
32759;BME280;19125;52.360;9.974;2023-04-20T10:49:50;86189.25;;;-145.17;37.67
32759;BME280;19125;52.360;9.974;2023-04-20T10:52:15;86092.00;;;-145.17;35.87
32759;BME280;19125;52.360;9.974;2023-04-20T10:54:41;86028.50;;;-145.17;36.27
32759;BME280;19125;52.360;9.974;2023-04-20T10:57:06;86076.13;;;-145.17;35.68
32759;BME280;19125;52.360;9.974;2023-04-20T10:59:32;86054.31;;;-145.17;35.80
32759;BME280;19125;52.360;9.974;2023-04-20T11:01:59;86032.47;;;-145.17;35.27
32759;BME280;19125;52.360;9.974;2023-04-20T11:04:29;86048.34;;;-145.17;34.99
32759;BME280;19125;52.360;9.974;2023-04-20T11:07:02;86141.63;;;-145.17;34.92
32759;BME280;19125;52.360;9.974;2023-04-20T11:09:28;86135.66;;;-145.17;35.74
32759;BME280;19125;52.360;9.974;2023-04-20T11:11:58;86167.41;;;-145.17;35.98
32759;BME280;19125;52.360;9.974;2023-04-20T11:14:24;86199.16;;;-145.17;35.77
32759;BME280;19125;52.360;9.974;2023-04-20T11:16:51;86222.97;;;-145.17;36.43
32759;BME280;19125;52.360;9.974;2023-04-20T11:19:43;86298.38;;;-145.17;37.38
32759;BME280;19125;52.360;9.974;2023-04-20T11:22:19;86258.69;;;-145.17;37.23
32759;BME280;19125;52.360;9.974;2023-04-20T11:24:45;86298.38;;;-145.17;37.31
32759;BME280;19125;52.360;9.974;2023-04-20T11:27:18;86310.28;;;-145.17;37.41
32759;BME280;19125;52.360;9.974;2023-04-20T11:29:54;86342.03;;;-145.17;37.95
32759;BME280;19125;52.360;9.974;2023-04-20T11:32:20;86306.31;;;-145.17;38.16
32759;BME280;19125;52.360;9.974;2023-04-20T11:34:46;86320.22;;;-145.17;37.69
32759;BME280;19125;52.360;9.974;2023-04-20T11:37:21;86314.25;;;-145.17;37.73
32759;BME280;19125;52.360;9.974;2023-04-20T11:39:58;86298.38;;;-145.17;38.13
32759;BME280;19125;52.360;9.974;2023-04-20T11:42:23;86322.19;;;-145.17;38.05
32759;BME280;19125;52.360;9.974;2023-04-20T11:44:49;86316.25;;;-145.17;38.05
32759;BME280;19125;52.360;9.974;2023-04-20T11:47:14;86437.28;;;-145.17;37.94
32759;BME280;19125;52.360;9.974;2023-04-20T11:49:39;86306.31;;;-145.17;38.15
32759;BME280;19125;52.360;9.974;2023-04-20T11:52:04;86318.22;;;-145.17;37.80
32759;BME280;19125;52.360;9.974;2023-04-20T11:54:30;86274.56;;;-145.17;37.80
32759;BME280;19125;52.360;9.974;2023-04-20T11:56:58;86219.00;;;-145.17;37.98
32759;BME280;19125;52.360;9.974;2023-04-20T11:59:24;86155.50;;;-145.17;37.01
32759;BME280;19125;52.360;9.974;2023-04-20T12:01:49;86139.63;;;-145.17;36.95
32759;BME280;19125;52.360;9.974;2023-04-20T12:04:14;86103.91;;;-145.17;36.17
32759;BME280;19125;52.360;9.974;2023-04-20T12:06:40;86099.94;;;-145.17;36.34
32759;BME280;19125;52.360;9.974;2023-04-20T12:09:06;86157.50;;;-145.17;35.90
32759;BME280;19125;52.360;9.974;2023-04-20T12:11:31;86151.53;;;-145.17;36.40
32759;BME280;19125;52.360;9.974;2023-04-20T12:13:57;86103.91;;;-145.17;35.90
32759;BME280;19125;52.360;9.974;2023-04-20T12:16:24;86050.34;;;-145.17;35.72
32759;BME280;19125;52.360;9.974;2023-04-20T12:18:50;85992.78;;;-145.17;34.91
32759;BME280;19125;52.360;9.974;2023-04-20T12:21:15;85988.81;;;-145.17;34.08
32759;BME280;19125;52.360;9.974;2023-04-20T12:23:41;85903.50;;;-145.17;34.23
32759;BME280;19125;52.360;9.974;2023-04-20T12:26:08;85925.31;;;-145.17;33.05
32759;BME280;19125;52.360;9.974;2023-04-20T12:28:33;85941.19;;;-145.17;33.55
32759;BME280;19125;52.360;9.974;2023-04-20T12:30:59;86016.59;;;-145.17;33.93
32759;BME280;19125;52.360;9.974;2023-04-20T12:33:24;85899.53;;;-145.17;33.46
32759;BME280;19125;52.360;9.974;2023-04-20T12:35:50;85838.03;;;-145.17;31.86
32759;BME280;19125;52.360;9.974;2023-04-20T12:38:15;85861.84;;;-145.17;31.63
32759;BME280;19125;52.360;9.974;2023-04-20T12:40:41;85840.00;;;-145.17;31.88
32759;BME280;19125;52.360;9.974;2023-04-20T12:43:06;85863.81;;;-145.17;32.46
32759;BME280;19125;52.360;9.974;2023-04-20T12:45:31;85921.34;;;-145.17;31.50
32759;BME280;19125;52.360;9.974;2023-04-20T12:47:59;85976.91;;;-145.17;32.46
32759;BME280;19125;52.360;9.974;2023-04-20T12:50:25;86028.50;;;-145.17;32.88
32759;BME280;19125;52.360;9.974;2023-04-20T12:52:50;86066.22;;;-145.17;33.39
32759;BME280;19125;52.360;9.974;2023-04-20T12:55:23;86088.03;;;-145.17;33.42
32759;BME280;19125;52.360;9.974;2023-04-20T12:57:49;86090.03;;;-145.17;33.87
32759;BME280;19125;52.360;9.974;2023-04-20T13:00:15;86076.13;;;-145.17;33.69
32759;BME280;19125;52.360;9.974;2023-04-20T13:02:41;86078.13;;;-145.17;34.01
32759;BME280;19125;52.360;9.974;2023-04-20T13:05:06;86092.00;;;-145.17;33.73
32759;BME280;19125;52.360;9.974;2023-04-20T13:07:32;86052.31;;;-145.17;34.01
32759;BME280;19125;52.360;9.974;2023-04-20T13:09:59;86022.56;;;-145.17;33.95
32759;BME280;19125;52.360;9.974;2023-04-20T13:12:24;86020.56;;;-145.17;33.25
32759;BME280;19125;52.360;9.974;2023-04-20T13:14:50;86010.66;;;-145.17;33.15
32759;BME280;19125;52.360;9.974;2023-04-20T13:17:16;86008.66;;;-145.17;33.53
32759;BME280;19125;52.360;9.974;2023-04-20T13:19:42;86026.53;;;-145.17;34.05
32759;BME280;19125;52.360;9.974;2023-04-20T13:22:07;86034.47;;;-145.17;33.55
32759;BME280;19125;52.360;9.974;2023-04-20T13:24:33;86044.38;;;-145.17;33.40
32759;BME280;19125;52.360;9.974;2023-04-20T13:26:58;86090.03;;;-145.17;34.05
32759;BME280;19125;52.360;9.974;2023-04-20T13:29:24;86070.19;;;-145.17;33.73
32759;BME280;19125;52.360;9.974;2023-04-20T13:31:50;86095.97;;;-145.17;34.36
32759;BME280;19125;52.360;9.974;2023-04-20T13:34:16;86058.28;;;-145.17;35.25
32759;BME280;19125;52.360;9.974;2023-04-20T13:36:42;86115.81;;;-145.17;35.05
32759;BME280;19125;52.360;9.974;2023-04-20T13:39:09;86131.69;;;-145.17;35.80
32759;BME280;19125;52.360;9.974;2023-04-20T13:41:35;86167.41;;;-145.17;36.34
32759;BME280;19125;52.360;9.974;2023-04-20T13:44:00;86242.81;;;-145.17;37.51
32759;BME280;19125;52.360;9.974;2023-04-20T13:46:26;86290.44;;;-145.17;38.29
32759;BME280;19125;52.360;9.974;2023-04-20T13:48:51;86300.38;;;-145.17;38.55
32759;BME280;19125;52.360;9.974;2023-04-20T13:51:16;86320.22;;;-145.17;39.25
32759;BME280;19125;52.360;9.974;2023-04-20T13:53:42;86302.34;;;-145.17;39.50
32759;BME280;19125;52.360;9.974;2023-04-20T13:56:07;86332.13;;;-145.17;40.10
32759;BME280;19125;52.360;9.974;2023-04-20T13:58:32;86385.69;;;-145.17;40.70
32759;BME280;19125;52.360;9.974;2023-04-20T14:00:58;86393.63;;;-145.17;40.81
32759;BME280;19125;52.360;9.974;2023-04-20T14:03:24;86399.59;;;-145.17;41.30
32759;BME280;19125;52.360;9.974;2023-04-20T14:05:50;86437.28;;;-145.17;41.75
32759;BME280;19125;52.360;9.974;2023-04-20T14:08:15;86429.34;;;-145.17;42.69
32759;BME280;19125;52.360;9.974;2023-04-20T14:10:41;86484.94;;;-145.17;43.35
32759;BME280;19125;52.360;9.974;2023-04-20T14:13:06;86473.03;;;-145.17;43.91
32759;BME280;19125;52.360;9.974;2023-04-20T14:15:32;86484.94;;;-145.17;44.07
32759;BME280;19125;52.360;9.974;2023-04-20T14:17:58;86522.63;;;-145.17;43.92
32759;BME280;19125;52.360;9.974;2023-04-20T14:20:25;86514.69;;;-145.17;43.81
32759;BME280;19125;52.360;9.974;2023-04-20T14:22:51;86498.81;;;-145.17;43.35
32759;BME280;19125;52.360;9.974;2023-04-20T14:25:16;86508.75;;;-145.17;43.39
32759;BME280;19125;52.360;9.974;2023-04-20T14:27:42;86488.91;;;-145.17;43.77
32759;BME280;19125;52.360;9.974;2023-04-20T14:30:08;86482.94;;;-145.17;42.85
32759;BME280;19125;52.360;9.974;2023-04-20T14:32:33;86486.91;;;-145.17;43.10
32759;BME280;19125;52.360;9.974;2023-04-20T14:34:59;86504.78;;;-145.17;43.39
32759;BME280;19125;52.360;9.974;2023-04-20T14:37:25;86528.59;;;-145.17;43.77
32759;BME280;19125;52.360;9.974;2023-04-20T14:39:51;86508.75;;;-145.17;43.97
32759;BME280;19125;52.360;9.974;2023-04-20T14:42:17;86532.56;;;-145.17;44.39
32759;BME280;19125;52.360;9.974;2023-04-20T14:44:42;86524.63;;;-145.17;44.00